LGAL/AXD METAR and TAF weather

Enter ICAO airport designator
Station Type Date Time Source
LGAL METAR 2022/06/25 22:20 UTC NOAA

LGAL 252220Z 00000KT 9999 -RA FEW020TCU SCT025 23/19 Q1013


Station Type Date Time Source
LGAL Decoded METAR 2022/06/25 22:20 UTC NOAA

Alexandroupoli Airport , Greece (LGAL) 40-51N 025-55E 3M
Jun 25, 2022 - 06:20 PM EDT / 2022.06.25 2220 UTC
Wind: Calm:0
Visibility: greater than 7 mile(s):0
Sky conditions: partly cloudy
Weather: light rain; Towering cumulus clouds observed
Temperature: 73 F (23 C)
Dew Point: 66 F (19 C)
Relative Humidity: 78%
Pressure (altimeter): 29.91 in. Hg (1013 hPa)
ob: LGAL 252220Z 00000KT 9999 -RA FEW020TCU SCT025 23/19 Q1013
cycle: 22

Station Type Date Time Source
LGAL TAF 2012/09/21 03:06 UTC NOAA

TAF TAF LGAL 210200Z 2103/2115 03012G22KT 9999 FEW020 SCT070 PROB30
TEMPO 2103/2106 6000 RA SCT015 BKN030 PROB30

Example: see airport list